Time;durP1;ratioP1;P1;durP2;ratioP2;P2;SDS_P1;SDS_P2;PMS_P1;PMS_P2;Temp;Humidity;BMP_temperature;BMP_pressure;BME280_temperature;BME280_humidity;BME280_pressure;Samples;Min_cycle;Max_cycle;Signal;HPM_P1;HPM_P2
2022/05/07 00:00:48;;;;;;;22.10;13.07;;;;;;;-145.18;100.00;46570.53;4973295;28;20065;-72
2022/05/07 00:03:14;;;;;;;16.73;11.97;;;;;;;-145.18;100.00;46570.53;4973722;28;20121;-72
2022/05/07 00:05:39;;;;;;;17.60;11.83;;;;;;;-145.18;100.00;46572.50;4972342;28;20093;-71
2022/05/07 00:08:05;;;;;;;16.93;12.87;;;;;;;-145.18;100.00;46576.41;4973788;28;20128;-72
2022/05/07 00:10:31;;;;;;;18.50;13.33;;;;;;;-145.18;100.00;46568.59;4973780;28;20050;-72
2022/05/07 00:12:56;;;;;;;19.47;13.00;;;;;;;-145.18;100.00;46578.34;4972970;28;20042;-72
2022/05/07 00:15:23;;;;;;;24.33;14.50;;;;;;;-145.18;100.00;46570.53;4973462;28;20271;-71
2022/05/07 00:18:01;;;;;;;19.30;13.17;;;;;;;-145.18;100.00;46562.72;4973457;28;20035;-71
2022/05/07 00:20:27;;;;;;;16.20;12.87;;;;;;;-145.18;100.00;46562.72;4973570;28;20038;-72
2022/05/07 00:22:53;;;;;;;18.53;12.83;;;;;;;-145.18;100.00;46576.41;4973230;28;20043;-71
2022/05/07 00:25:19;;;;;;;20.97;14.40;;;;;;;-145.18;100.00;46576.41;4973244;28;20146;-71
2022/05/07 00:27:44;;;;;;;22.73;16.23;;;;;;;-145.18;100.00;46568.59;4972208;28;20558;-71
2022/05/07 00:30:10;;;;;;;20.43;15.63;;;;;;;-145.18;100.00;46564.69;4972945;28;20045;-71
2022/05/07 00:32:35;;;;;;;23.27;15.93;;;;;;;-145.18;100.00;46574.44;4973454;28;20455;-71
2022/05/07 00:35:01;;;;;;;21.07;16.27;;;;;;;-145.18;100.00;46568.59;4972524;28;20045;-71
2022/05/07 00:37:26;;;;;;;21.03;16.33;;;;;;;-145.18;100.00;46572.50;4973290;28;20407;-71
2022/05/07 00:39:52;;;;;;;22.17;15.53;;;;;;;-145.18;100.00;46574.44;4972839;28;20066;-71
2022/05/07 00:42:18;;;;;;;20.67;16.50;;;;;;;-145.18;100.00;46570.53;4973289;28;20085;-71
2022/05/07 00:44:43;;;;;;;23.73;17.93;;;;;;;-145.18;100.00;46578.34;4955683;28;20035;-72
2022/05/07 00:47:11;;;;;;;23.37;15.93;;;;;;;-145.18;100.00;46570.53;4972732;28;20039;-72
2022/05/07 00:49:37;;;;;;;18.13;15.37;;;;;;;-145.18;100.00;46574.44;4972749;28;20093;-72
2022/05/07 00:52:04;;;;;;;18.30;15.37;;;;;;;-145.18;100.00;46578.34;4972519;28;20058;-72
2022/05/07 00:54:30;;;;;;;18.47;13.97;;;;;;;-145.18;100.00;46572.50;4972747;28;20037;-72
2022/05/07 00:56:55;;;;;;;18.57;14.10;;;;;;;-145.18;100.00;46566.63;4972562;28;20042;-72
2022/05/07 00:59:21;;;;;;;22.33;15.93;;;;;;;-145.18;100.00;46576.41;4972576;28;20492;-72
2022/05/07 01:01:46;;;;;;;21.40;13.87;;;;;;;-145.18;100.00;46566.63;4971388;28;20090;-72
2022/05/07 01:04:11;;;;;;;19.30;14.17;;;;;;;-145.18;100.00;46613.50;4972895;28;20149;-72
2022/05/07 01:06:38;;;;;;;16.20;13.50;;;;;;;-145.18;100.00;46574.44;4972731;28;20063;-71
2022/05/07 01:09:04;;;;;;;20.83;15.93;;;;;;;-145.18;100.00;46572.50;4972131;28;20558;-71
2022/05/07 01:11:31;;;;;;;25.60;17.17;;;;;;;-145.18;100.00;46578.34;4972637;28;20066;-72
2022/05/07 01:13:57;;;;;;;22.50;16.57;;;;;;;-145.18;100.00;46568.59;4971983;28;20043;-71
2022/05/07 01:16:23;;;;;;;24.80;17.50;;;;;;;-145.18;100.00;46574.44;4972203;28;20065;-71
2022/05/07 01:18:49;;;;;;;25.10;16.70;;;;;;;-145.18;100.00;46568.59;4972298;28;20031;-71
2022/05/07 01:21:17;;;;;;;20.60;16.63;;;;;;;-145.18;100.00;46574.44;4972512;28;20403;-71
2022/05/07 01:23:44;;;;;;;22.10;15.17;;;;;;;-145.18;100.00;46617.41;4972333;28;20042;-71
2022/05/07 01:26:11;;;;;;;19.67;15.80;;;;;;;-145.18;100.00;46572.50;4972315;28;20042;-72
2022/05/07 01:28:36;;;;;;;17.83;14.67;;;;;;;-145.18;100.00;46572.50;4972382;28;20030;-72
2022/05/07 01:31:02;;;;;;;21.37;15.87;;;;;;;-145.18;100.00;46568.59;4971908;28;20536;-72
2022/05/07 01:33:28;;;;;;;24.20;15.57;;;;;;;-145.18;100.00;46574.44;4972388;28;20026;-72
2022/05/07 01:35:54;;;;;;;21.80;16.97;;;;;;;-145.18;100.00;46574.44;4971851;28;20047;-72
2022/05/07 01:38:19;;;;;;;24.47;15.87;;;;;;;-145.18;100.00;46570.53;4971914;28;20042;-72
2022/05/07 01:40:45;;;;;;;20.37;16.70;;;;;;;-145.18;100.00;46574.44;4972072;28;20034;-72
2022/05/07 01:43:10;;;;;;;21.87;16.77;;;;;;;-145.18;100.00;46574.44;4971847;28;20141;-72
2022/05/07 01:45:36;;;;;;;23.77;18.17;;;;;;;-145.18;100.00;46576.41;4954745;28;20451;-72
2022/05/07 01:48:10;;;;;;;22.03;17.73;;;;;;;-145.18;100.00;46566.63;4971800;28;20027;-72
2022/05/07 01:50:41;;;;;;;21.23;16.63;;;;;;;-145.18;100.00;46574.44;4971633;28;20038;-72
2022/05/07 01:53:13;;;;;;;25.77;17.37;;;;;;;-145.18;100.00;46570.53;4971511;28;20531;-72
2022/05/07 01:55:39;;;;;;;27.90;17.47;;;;;;;-145.18;100.00;46619.38;4971641;28;20555;-72
2022/05/07 01:58:05;;;;;;;31.47;22.27;;;;;;;-145.18;100.00;46617.41;4971697;28;20031;-72
2022/05/07 02:03:08;;;;;;;27.43;20.17;;;;;;;-145.18;100.00;46613.50;5192961;23;20050;-72
2022/05/07 02:05:33;;;;;;;27.57;20.40;;;;;;;-145.18;100.00;46611.56;4989526;28;20457;-72
2022/05/07 02:07:58;;;;;;;34.17;19.40;;;;;;;-145.18;100.00;46613.50;4982575;28;20080;-72
2022/05/07 02:10:24;;;;;;;31.93;21.57;;;;;;;-145.18;100.00;46611.56;4971397;28;20038;-72
2022/05/07 02:12:51;;;;;;;25.70;20.03;;;;;;;-145.18;100.00;46613.50;4970877;28;20039;-72
2022/05/07 02:15:16;;;;;;;26.90;19.40;;;;;;;-145.18;100.00;46609.59;4971514;28;20046;-72
2022/05/07 02:17:42;;;;;;;28.27;20.03;;;;;;;-145.18;100.00;46615.47;4971334;28;20438;-72
2022/05/07 02:20:08;;;;;;;28.50;20.43;;;;;;;-145.18;100.00;46605.69;4971240;28;20096;-72
2022/05/07 02:22:33;;;;;;;32.93;20.20;;;;;;;-145.18;100.00;46564.69;4971041;28;20042;-72
2022/05/07 02:24:59;;;;;;;27.90;19.60;;;;;;;-145.18;100.00;46607.66;4971106;28;20096;-72
2022/05/07 02:27:26;;;;;;;25.73;19.87;;;;;;;-145.18;100.00;46605.69;4970968;28;20109;-72
2022/05/07 02:29:51;;;;;;;26.47;19.97;;;;;;;-145.18;100.00;46560.78;4971072;28;20443;-72
2022/05/07 02:32:17;;;;;;;29.07;20.27;;;;;;;-145.18;100.00;46611.56;4970804;28;20093;-72
2022/05/07 02:34:43;;;;;;;26.73;20.53;;;;;;;-145.18;100.00;46619.38;4971568;28;20039;-72
2022/05/07 02:37:08;;;;;;;27.27;20.53;;;;;;;-145.18;100.00;46611.56;4970534;28;20050;-72
2022/05/07 02:39:34;;;;;;;31.07;20.23;;;;;;;-145.18;100.00;46611.56;4970994;28;20039;-73
2022/05/07 02:44:44;;;;;;;23.70;19.10;;;;;;;-145.18;100.00;46611.56;4970349;28;20045;-72
2022/05/07 02:47:10;;;;;;;24.40;19.77;;;;;;;-145.18;100.00;46619.38;4970385;28;20109;-72
2022/05/07 02:49:35;;;;;;;26.70;20.63;;;;;;;-145.18;100.00;46623.28;4971160;28;20102;-72
2022/05/07 02:52:01;;;;;;;26.03;20.47;;;;;;;-145.18;100.00;46625.22;4970560;28;20062;-73
2022/05/07 02:54:27;;;;;;;31.07;21.70;;;;;;;-145.18;100.00;46636.94;4971094;28;20471;-72
2022/05/07 02:56:54;;;;;;;32.63;22.37;;;;;;;-145.18;100.00;46652.59;4970334;28;20038;-72
2022/05/07 02:59:19;;;;;;;30.33;22.80;;;;;;;-145.18;100.00;46656.50;4953587;28;20026;-73
2022/05/07 03:01:44;;;;;;;36.10;21.83;;;;;;;-145.18;100.00;46640.88;4975957;28;20034;-72
2022/05/07 03:04:10;;;;;;;30.87;22.37;;;;;;;-145.18;100.00;46642.81;4989939;28;20046;-72
2022/05/07 03:06:36;;;;;;;32.00;21.47;;;;;;;-145.18;100.00;46635.00;4990516;28;20035;-72
2022/05/07 03:09:03;;;;;;;32.50;20.33;;;;;;;-145.18;100.00;46627.19;4989618;28;20031;-72
2022/05/07 03:11:28;;;;;;;29.70;21.23;;;;;;;-145.18;100.00;46619.38;4990213;28;20049;-72
2022/05/07 03:13:54;;;;;;;28.90;20.27;;;;;;;-145.18;100.00;46623.28;4989736;28;20507;-72
2022/05/07 03:16:19;;;;;;;28.60;22.83;;;;;;;-145.18;100.00;46635.00;4991680;28;20398;-72
2022/05/07 03:18:44;;;;;;;27.10;20.60;;;;;;;-145.18;100.00;46660.41;4976552;28;20458;-72
2022/05/07 03:21:10;;;;;;;28.90;19.53;;;;;;;-145.18;100.00;46662.34;4993681;28;20061;-72
2022/05/07 03:23:35;;;;;;;29.70;21.60;;;;;;;-145.18;100.00;46672.13;4993755;28;20438;-72
2022/05/07 03:26:01;;;;;;;32.40;22.00;;;;;;;-145.18;100.00;46674.06;4994082;28;20033;-72
2022/05/07 03:28:26;;;;;;;35.57;21.80;;;;;;;-145.18;100.00;46676.03;4993577;28;20038;-72
2022/05/07 03:30:52;;;;;;;29.57;20.93;;;;;;;-145.18;100.00;46677.97;4993678;28;20030;-72
2022/05/07 03:33:17;;;;;;;32.43;22.03;;;;;;;-145.18;100.00;46677.97;4993727;28;20035;-72
2022/05/07 03:35:43;;;;;;;31.13;22.30;;;;;;;-145.18;100.00;46668.22;4994128;28;20049;-72
2022/05/07 03:38:09;;;;;;;31.73;21.13;;;;;;;-145.18;100.00;46676.03;4993167;28;20085;-72
2022/05/07 03:40:35;;;;;;;31.73;22.83;;;;;;;-145.18;100.00;46672.13;4976316;28;20752;-72
2022/05/07 03:43:01;;;;;;;27.97;20.60;;;;;;;-145.18;100.00;46670.16;4993147;28;20074;-72
2022/05/07 03:45:27;;;;;;;31.50;22.23;;;;;;;-145.18;100.00;46664.31;4993803;28;20117;-72
2022/05/07 03:47:53;;;;;;;27.40;21.57;;;;;;;-145.18;100.00;46656.50;4993089;28;20415;-72
2022/05/07 03:50:18;;;;;;;28.60;20.53;;;;;;;-145.18;100.00;46662.34;4993810;28;20363;-72
2022/05/07 03:55:27;;;;;;;29.93;20.67;;;;;;;-145.18;100.00;46656.50;4993655;28;20049;-72
2022/05/07 03:57:54;;;;;;;23.63;19.10;;;;;;;-145.18;100.00;46656.50;4992878;28;20034;-73
2022/05/07 04:00:20;;;;;;;30.87;22.10;;;;;;;-145.18;100.00;46654.53;4976592;28;20038;-73
2022/05/07 04:02:45;;;;;;;28.67;19.97;;;;;;;-145.18;100.00;46656.50;4992635;28;20410;-72
2022/05/07 04:05:11;;;;;;;27.23;17.67;;;;;;;-145.18;100.00;46658.44;4993302;28;20346;-73
2022/05/07 04:07:36;;;;;;;25.33;17.80;;;;;;;-145.18;100.00;46666.25;4993077;28;20062;-72
2022/05/07 04:10:02;;;;;;;22.57;16.07;;;;;;;-145.18;100.00;46668.22;4993218;28;20584;-72
2022/05/07 04:12:28;;;;;;;28.07;17.70;;;;;;;-145.18;100.00;46679.94;4992617;28;20042;-72
2022/05/07 04:14:57;;;;;;;23.73;18.07;;;;;;;-145.18;100.00;46679.94;4992842;28;20038;-72
2022/05/07 04:17:23;;;;;;;27.30;18.47;;;;;;;-145.18;100.00;46683.84;4992783;28;20553;-73
2022/05/07 04:19:48;;;;;;;22.93;17.10;;;;;;;-145.18;100.00;46679.94;4992985;28;20066;-72
2022/05/07 04:22:13;;;;;;;30.27;19.77;;;;;;;-145.18;100.00;46677.97;4975157;28;20042;-72
2022/05/07 04:24:39;;;;;;;28.40;19.30;;;;;;;-145.18;100.00;46677.97;4993004;28;20064;-73
2022/05/07 04:27:05;;;;;;;31.67;19.10;;;;;;;-145.18;100.00;46681.88;4975704;28;20046;-73
2022/05/07 04:29:30;;;;;;;24.97;17.10;;;;;;;-145.18;100.00;46679.94;4992050;28;20053;-73
2022/05/07 04:31:55;;;;;;;23.97;18.03;;;;;;;-145.18;100.00;46679.94;4992567;28;20043;-72
2022/05/07 04:34:22;;;;;;;23.00;16.73;;;;;;;-145.18;100.00;46679.94;4992715;28;20042;-73
2022/05/07 04:36:47;;;;;;;27.07;17.43;;;;;;;-145.18;100.00;46677.97;4992471;28;20041;-72
2022/05/07 04:39:13;;;;;;;25.50;17.40;;;;;;;-145.18;100.00;46685.78;4992163;28;20321;-72
2022/05/07 04:41:38;;;;;;;27.37;17.73;;;;;;;-145.18;100.00;46689.69;4992735;28;20050;-72
2022/05/07 04:44:04;;;;;;;28.30;18.10;;;;;;;-145.18;100.00;46681.88;4992396;28;20037;-72
2022/05/07 04:46:29;;;;;;;24.27;17.93;;;;;;;-145.18;100.00;46687.75;4992772;28;20022;-72
2022/05/07 04:48:54;;;;;;;25.40;17.20;;;;;;;-145.18;100.00;46677.97;4991960;28;20038;-72
2022/05/07 04:51:20;;;;;;;24.53;17.23;;;;;;;-145.18;100.00;46681.88;4992547;28;20061;-72
2022/05/07 04:53:45;;;;;;;25.57;17.40;;;;;;;-145.18;100.00;46674.06;4992409;28;20062;-72
2022/05/07 04:56:11;;;;;;;22.67;16.03;;;;;;;-145.18;100.00;46674.06;4991994;28;20045;-72
2022/05/07 04:58:36;;;;;;;26.47;14.63;;;;;;;-145.18;100.00;46677.97;4992001;28;20038;-72
2022/05/07 05:01:02;;;;;;;24.07;14.17;;;;;;;-145.18;100.00;46670.16;4992123;28;20581;-72
2022/05/07 05:03:27;;;;;;;27.77;14.23;;;;;;;-145.18;100.00;46676.03;4991802;28;20051;-72
2022/05/07 05:05:52;;;;;;;27.77;13.87;;;;;;;-145.18;100.00;46676.03;4992171;28;20038;-72
2022/05/07 05:08:18;;;;;;;29.13;14.37;;;;;;;-145.18;100.00;46685.78;4957926;28;20143;-72
2022/05/07 05:10:44;;;;;;;25.20;14.07;;;;;;;-145.18;100.00;46693.59;4992394;28;20092;-72
2022/05/07 05:13:09;;;;;;;27.23;14.83;;;;;;;-145.18;100.00;46687.75;4991488;28;20034;-73
2022/05/07 05:15:35;;;;;;;26.97;14.07;;;;;;;-145.18;100.00;46695.56;4991942;28;20030;-73
2022/05/07 05:18:00;;;;;;;33.90;15.10;;;;;;;-145.18;100.00;46695.56;4974083;28;20027;-73
2022/05/07 05:20:25;;;;;;;33.20;15.77;;;;;;;-145.18;100.00;46693.59;4991873;28;20037;-72
2022/05/07 05:22:51;;;;;;;34.63;15.93;;;;;;;-145.18;100.00;46691.66;4991394;28;20031;-73
2022/05/07 05:25:19;;;;;;;37.83;15.23;;;;;;;-145.18;100.00;46691.66;4979000;28;20124;-73
2022/05/07 05:27:45;;;;;;;36.40;16.50;;;;;;;-145.18;100.00;46687.75;5010712;28;20068;-73
2022/05/07 05:30:11;;;;;;;36.27;17.17;;;;;;;-145.18;100.00;46677.97;4994053;28;20503;-73
2022/05/07 05:32:37;;;;;;;37.93;17.50;;;;;;;-145.18;100.00;46674.06;5001425;28;20091;-73
2022/05/07 05:35:03;;;;;;;35.53;17.87;;;;;;;-145.18;100.00;46677.97;5003159;28;20029;-73
2022/05/07 05:37:30;;;;;;;36.07;17.07;;;;;;;-145.18;100.00;46676.03;5008753;28;20041;-73
2022/05/07 05:39:55;;;;;;;36.50;17.13;;;;;;;-145.18;100.00;46674.06;4989130;28;20034;-73
2022/05/07 05:42:21;;;;;;;34.43;17.20;;;;;;;-145.18;100.00;46676.03;4991690;28;20494;-73
2022/05/07 05:44:46;;;;;;;36.00;16.67;;;;;;;-145.18;100.00;46672.13;4991479;28;20054;-73
2022/05/07 05:47:12;;;;;;;38.77;17.13;;;;;;;-145.18;100.00;46676.03;4991474;28;20478;-73
2022/05/07 05:49:37;;;;;;;37.43;18.47;;;;;;;-145.18;100.00;46672.13;4991342;28;20108;-73
2022/05/07 05:52:05;;;;;;;31.93;17.40;;;;;;;-145.18;100.00;46679.94;4991243;28;20033;-73
2022/05/07 05:54:30;;;;;;;35.77;17.90;;;;;;;-145.18;100.00;46679.94;4973344;28;20491;-73
2022/05/07 05:56:57;;;;;;;37.93;18.57;;;;;;;-145.18;100.00;46676.03;4991125;28;20073;-73
2022/05/07 05:59:22;;;;;;;35.10;18.00;;;;;;;-145.18;100.00;46672.13;4991138;28;20030;-73
2022/05/07 06:01:48;;;;;;;35.33;19.57;;;;;;;-145.18;100.00;46666.25;4991031;28;20053;-73
2022/05/07 06:04:14;;;;;;;42.50;17.80;;;;;;;-145.18;100.00;46650.63;4990042;28;20104;-73
2022/05/07 06:06:40;;;;;;;39.57;18.60;;;;;;;-145.18;100.00;46640.88;4987286;28;20088;-73
2022/05/07 06:09:05;;;;;;;39.40;19.00;;;;;;;-145.18;100.00;46646.72;5009690;28;20038;-73
2022/05/07 06:11:30;;;;;;;40.23;17.67;;;;;;;-145.18;100.00;46646.72;5010542;28;20132;-73
2022/05/07 06:13:56;;;;;;;42.37;18.27;;;;;;;-145.18;100.00;46636.94;5009483;28;20049;-73
2022/05/07 06:16:21;;;;;;;41.77;19.50;;;;;;;-145.18;100.00;46635.00;5010352;28;20042;-73
2022/05/07 06:18:46;;;;;;;38.70;18.33;;;;;;;-145.18;100.00;46635.00;5010282;28;20474;-73
2022/05/07 06:21:12;;;;;;;39.93;19.83;;;;;;;-145.18;100.00;46629.13;5010391;28;20056;-74
2022/05/07 06:23:37;;;;;;;34.77;18.23;;;;;;;-145.18;100.00;46636.94;5010110;28;20454;-74
2022/05/07 06:28:46;;;;;;;40.93;19.47;;;;;;;-145.18;100.00;46650.63;5010559;28;20056;-74
2022/05/07 06:31:12;;;;;;;37.87;18.87;;;;;;;-145.18;100.00;46631.09;5010224;28;20037;-74
2022/05/07 06:33:39;;;;;;;40.83;20.07;;;;;;;-145.18;100.00;46592.03;5010297;28;20034;-74
2022/05/07 06:36:06;;;;;;;44.27;20.27;;;;;;;-145.18;100.00;46570.53;5010248;28;20760;-74
2022/05/07 06:38:31;;;;;;;42.57;21.40;;;;;;;-145.18;100.00;46558.81;5010267;28;20105;-74
2022/05/07 06:41:02;;;;;;;38.60;19.77;;;;;;;-145.18;100.00;46541.25;4997498;28;20121;-74
2022/05/07 06:43:28;;;;;;;42.97;20.37;;;;;;;-145.18;100.00;46543.19;4990554;28;20545;-74
2022/05/07 06:45:53;;;;;;;42.63;19.97;;;;;;;-145.18;100.00;46541.25;4990434;28;20443;-74
2022/05/07 06:48:19;;;;;;;40.57;21.13;;;;;;;-145.18;100.00;46541.25;4980671;28;20114;-74
2022/05/07 06:50:44;;;;;;;49.87;21.37;;;;;;;-145.18;100.00;46539.28;4990386;28;20057;-74
2022/05/07 06:53:09;;;;;;;47.73;20.63;;;;;;;-145.18;100.00;46535.38;4994040;28;20027;-73
2022/05/07 06:55:54;;;;;;;49.77;19.83;;;;;;;-145.18;100.00;46531.47;4994437;28;20117;-74
2022/05/07 06:58:21;;;;;;;44.00;20.40;;;;;;;-145.18;100.00;46539.28;4994247;28;20030;-74
2022/05/07 07:00:47;;;;;;;42.97;20.83;;;;;;;-145.18;100.00;46535.38;4994819;28;20121;-74
2022/05/07 07:03:12;;;;;;;38.93;19.90;;;;;;;-145.18;100.00;46537.34;4993559;28;20142;-74
2022/05/07 07:05:37;;;;;;;39.60;20.63;;;;;;;-145.18;100.00;46543.19;5012809;28;20042;-74
2022/05/07 07:08:03;;;;;;;40.23;19.50;;;;;;;-145.18;100.00;46545.16;5013575;28;20109;-74
2022/05/07 07:10:28;;;;;;;42.53;19.93;;;;;;;-145.18;100.00;46554.91;5014164;28;20076;-74
2022/05/07 07:12:54;;;;;;;36.80;19.73;;;;;;;-145.18;100.00;46547.09;5013742;28;20046;-74
2022/05/07 07:15:19;;;;;;;41.67;20.07;;;;;;;-145.18;100.00;46558.81;5013842;28;20034;-74
2022/05/07 07:17:45;;;;;;;41.23;18.70;;;;;;;-145.18;100.00;46549.06;5013848;28;20081;-74
2022/05/07 07:20:10;;;;;;;36.63;19.03;;;;;;;-145.18;100.00;46537.34;5013924;28;20479;-74
2022/05/07 07:22:36;;;;;;;39.63;19.40;;;;;;;-145.18;100.00;46541.25;5013750;28;20200;-74
2022/05/07 07:25:01;;;;;;;36.00;17.40;;;;;;;-145.18;100.00;46554.91;5013401;28;20097;-74
2022/05/07 07:27:27;;;;;;;35.57;17.63;;;;;;;-145.18;100.00;46552.97;4996237;28;20038;-74
2022/05/07 07:29:52;;;;;;;31.57;17.63;;;;;;;-145.18;100.00;46549.06;5013549;28;20030;-74
2022/05/07 07:32:18;;;;;;;39.47;18.63;;;;;;;-145.18;100.00;46554.91;5014127;28;20030;-74
2022/05/07 07:34:43;;;;;;;32.40;17.90;;;;;;;-145.18;100.00;46556.88;5013352;28;20038;-74
2022/05/07 07:37:09;;;;;;;38.77;18.83;;;;;;;-145.18;100.00;46560.78;5013073;28;20058;-74
2022/05/07 07:39:34;;;;;;;36.03;17.60;;;;;;;-145.18;100.00;46560.78;5013198;28;20040;-74
2022/05/07 07:41:59;;;;;;;34.13;17.33;;;;;;;-145.18;100.00;46560.78;5013580;28;20038;-74
2022/05/07 07:44:26;;;;;;;34.37;17.80;;;;;;;-145.18;100.00;46547.09;5012999;28;20041;-74
2022/05/07 07:49:36;;;;;;;32.77;16.90;;;;;;;-145.18;100.00;46554.91;4998513;28;20513;-74
2022/05/07 07:52:02;;;;;;;33.00;17.70;;;;;;;-145.18;100.00;46554.91;5013397;28;20030;-74
2022/05/07 07:54:27;;;;;;;34.47;17.90;;;;;;;-145.18;100.00;46547.09;5012915;28;20048;-74
2022/05/07 07:56:52;;;;;;;30.20;16.73;;;;;;;-145.18;100.00;46566.63;5013431;28;20068;-74
2022/05/07 07:59:18;;;;;;;24.30;15.20;;;;;;;-145.18;100.00;46554.91;5012509;28;20117;-74
2022/05/07 08:01:43;;;;;;;33.57;17.10;;;;;;;-145.18;100.00;46556.88;5013471;28;20475;-74
2022/05/07 08:04:09;;;;;;;25.73;15.60;;;;;;;-145.18;100.00;46554.91;5011216;28;20541;-74
2022/05/07 08:06:35;;;;;;;27.10;14.70;;;;;;;-145.18;100.00;46570.53;4995647;28;20168;-74
2022/05/07 08:11:47;;;;;;;29.80;15.07;;;;;;;-145.18;100.00;46572.50;5013510;28;20552;-74
2022/05/07 08:14:13;;;;;;;33.03;16.57;;;;;;;-145.18;100.00;46562.72;5012517;28;20505;-74
2022/05/07 08:16:40;;;;;;;27.67;15.47;;;;;;;-145.18;100.00;46554.91;5012913;28;20467;-74
2022/05/07 08:19:06;;;;;;;25.30;14.37;;;;;;;-145.18;100.00;46556.88;5012417;28;20029;-75
2022/05/07 08:21:32;;;;;;;29.00;16.13;;;;;;;-145.18;100.00;46570.53;5012725;28;20037;-74
2022/05/07 08:23:58;;;;;;;26.97;15.57;;;;;;;-145.18;100.00;46564.69;5012345;28;20034;-74
2022/05/07 08:26:24;;;;;;;28.57;15.73;;;;;;;-145.18;100.00;46588.13;5012820;28;20040;-74
2022/05/07 08:28:51;;;;;;;29.53;15.30;;;;;;;-145.18;100.00;46607.66;5012259;28;20034;-74
2022/05/07 08:31:18;;;;;;;29.70;16.23;;;;;;;-145.18;100.00;46593.97;5012579;28;20121;-74
2022/05/07 08:33:44;;;;;;;26.47;14.43;;;;;;;-145.18;100.00;46603.75;5011996;28;20367;-74
2022/05/07 08:36:11;;;;;;;22.93;13.40;;;;;;;-145.18;100.00;46603.75;5008526;28;20045;-74
2022/05/07 08:38:37;;;;;;;27.83;14.50;;;;;;;-145.18;100.00;46599.84;4994203;28;20704;-74
2022/05/07 08:41:03;;;;;;;26.87;14.07;;;;;;;-145.18;100.00;46599.84;4998351;28;20062;-74
2022/05/07 08:43:36;;;;;;;24.23;12.60;;;;;;;-145.18;100.00;46560.78;5000556;28;20498;-74
2022/05/07 08:46:24;;;;;;;19.83;13.13;;;;;;;-145.18;100.00;46590.06;5002879;28;20042;-74
2022/05/07 08:48:51;;;;;;;26.93;15.30;;;;;;;-145.18;100.00;46588.13;5011243;28;20486;-75
2022/05/07 08:51:20;;;;;;;24.60;13.07;;;;;;;-145.18;100.00;46572.50;5011815;28;20062;-74
2022/05/07 08:53:53;;;;;;;24.33;12.40;;;;;;;-145.18;100.00;46605.69;5010840;28;20435;-74
2022/05/07 08:56:19;;;;;;;22.60;13.50;;;;;;;-145.18;100.00;46644.78;4992097;28;20384;-74
2022/05/07 08:58:49;;;;;;;20.50;11.60;;;;;;;-145.18;100.00;46619.38;5001351;28;20604;-74
2022/05/07 09:01:14;;;;;;;24.30;13.03;;;;;;;-145.18;100.00;46652.59;4990256;28;20037;-74
2022/05/07 09:03:41;;;;;;;19.97;13.00;;;;;;;-145.18;100.00;46863.53;4991517;28;20047;-74
2022/05/07 09:06:27;;;;;;;19.43;12.33;;;;;;;-145.18;100.00;47140.94;4992047;28;20035;-74
2022/05/07 09:08:54;;;;;;;24.45;12.50;;;;;;;-145.18;100.00;47211.28;4998625;28;20026;-74
2022/05/07 09:11:20;;;;;;;22.10;12.60;;;;;;;-145.18;100.00;46804.94;5011182;28;20048;-74
2022/05/07 09:13:47;;;;;;;18.80;10.20;;;;;;;-145.18;100.00;47203.47;5011331;28;20557;-74
2022/05/07 09:16:14;;;;;;;19.13;11.70;;;;;;;-145.18;100.00;47183.94;5010221;28;20124;-74
2022/05/07 09:18:46;;;;;;;20.47;11.47;;;;;;;-145.18;100.00;47164.38;5011144;28;20037;-74
2022/05/07 09:21:23;;;;;;;19.20;11.00;;;;;;;-145.18;100.00;47226.91;4995507;28;20072;-74
2022/05/07 09:24:02;;;;;;;18.90;11.00;;;;;;;-145.18;100.00;47230.81;5003222;28;20486;-74
2022/05/07 09:26:30;;;;;;;15.17;9.87;;;;;;;-145.18;100.00;47203.47;5011286;28;20025;-74
2022/05/07 09:28:56;;;;;;;20.40;10.50;;;;;;;-145.18;100.00;47172.19;4997803;28;20034;-74
2022/05/07 09:31:32;;;;;;;19.53;10.13;;;;;;;-145.18;100.00;47193.69;4991966;28;20031;-74
2022/05/07 09:36:43;;;;;;;17.57;9.77;;;;;;;-145.18;100.00;47160.47;4991878;28;19920;-74
2022/05/07 09:39:13;;;;;;;15.03;9.77;;;;;;;-145.18;100.00;47152.66;4990248;28;20035;-74
2022/05/07 09:41:43;;;;;;;18.13;9.80;;;;;;;-145.18;100.00;47140.94;4989941;28;20498;-74
2022/05/07 09:44:10;;;;;;;15.70;8.33;;;;;;;-145.18;100.00;47097.97;4990105;28;20042;-75
2022/05/07 09:46:35;;;;;;;16.60;9.70;;;;;;;-145.18;100.00;47084.28;4991158;28;20030;-74
2022/05/07 09:49:03;;;;;;;11.77;7.80;;;;;;;-145.18;100.00;47076.47;4991054;28;20332;-74
2022/05/07 09:51:30;;;;;;;14.73;8.07;;;;;;;-145.18;100.00;47066.72;4991304;28;20038;-73
2022/05/07 09:59:25;;;;;;;11.40;6.73;;;;;;;-145.18;100.00;47058.91;5010583;28;20045;-74
2022/05/07 10:02:11;;;;;;;16.50;8.67;;;;;;;-145.18;100.00;47096.00;5010408;28;20263;-74
2022/05/07 10:04:51;;;;;;;12.27;8.03;;;;;;;-145.18;100.00;47121.41;5010624;28;20096;-74
2022/05/07 10:07:44;;;;;;;11.70;7.37;;;;;;;-145.18;100.00;47078.44;5010690;28;20088;-74
2022/05/07 10:10:28;;;;;;;12.27;7.43;;;;;;;-145.18;100.00;47072.56;5010069;28;20084;-74
2022/05/07 10:12:56;;;;;;;16.40;7.53;;;;;;;-145.18;100.00;47047.19;4992988;28;20034;-74
2022/05/07 10:15:25;;;;;;;10.50;7.03;;;;;;;-145.18;100.00;47080.38;5010410;28;20512;-74
2022/05/07 10:18:17;;;;;;;13.93;8.07;;;;;;;-145.18;100.00;47090.16;5010924;28;20041;-74
2022/05/07 10:20:45;;;;;;;11.33;7.90;;;;;;;-145.18;100.00;47084.28;4985838;28;20054;-74
2022/05/07 10:23:13;;;;;;;11.33;7.43;;;;;;;-145.18;100.00;47131.19;4990671;28;20030;-74
2022/05/07 10:25:40;;;;;;;16.90;7.03;;;;;;;-145.18;100.00;47129.22;4991359;28;20027;-74
2022/05/07 10:28:10;;;;;;;12.03;7.40;;;;;;;-145.18;100.00;47131.19;4990494;28;20487;-74
2022/05/07 10:30:46;;;;;;;14.30;8.13;;;;;;;-145.18;100.00;47140.94;4991254;28;20026;-74
2022/05/07 10:33:12;;;;;;;16.33;8.43;;;;;;;-145.18;100.00;47137.03;5006298;28;20075;-74
2022/05/07 10:35:41;;;;;;;12.10;7.77;;;;;;;-145.18;100.00;47135.09;5009079;28;20484;-74
2022/05/07 10:38:26;;;;;;;15.80;9.13;;;;;;;-145.18;100.00;47092.09;5009795;28;20026;-74
2022/05/07 10:41:01;;;;;;;13.40;8.07;;;;;;;-145.18;100.00;47058.91;5010125;28;20026;-74
2022/05/07 10:43:40;;;;;;;12.88;8.68;;;;;;;-145.18;100.00;47058.91;5010048;28;20037;-74
2022/05/07 10:46:14;;;;;;;14.80;8.00;;;;;;;-145.18;100.00;47045.22;5009753;28;20041;-74
2022/05/07 10:48:50;;;;;;;12.27;8.40;;;;;;;-145.18;100.00;47058.91;5009855;28;20054;-74
2022/05/07 10:51:36;;;;;;;12.03;7.90;;;;;;;-145.18;100.00;47111.66;5009942;28;20104;-74
2022/05/07 10:54:03;;;;;;;;;;;;;;;-145.18;100.00;47105.78;5009837;28;20026;-74
2022/05/07 10:56:30;;;;;;;15.13;8.17;;;;;;;-145.18;100.00;47107.72;5009632;28;20011;-75
2022/05/07 10:58:59;;;;;;;15.27;8.07;;;;;;;-145.18;100.00;47125.31;5009459;28;20097;-74
2022/05/07 11:01:31;;;;;;;13.37;7.70;;;;;;;-145.18;100.00;47121.41;5009778;28;20084;-74
2022/05/07 11:04:08;;;;;;;16.67;8.93;;;;;;;-145.18;100.00;47090.16;5009307;28;20073;-74
2022/05/07 11:06:39;;;;;;;12.13;7.63;;;;;;;-145.18;100.00;47105.78;5009762;28;20032;-74
2022/05/07 11:09:05;;;;;;;10.50;7.57;;;;;;;-145.18;100.00;47064.75;5009626;28;20014;-74
2022/05/07 11:11:30;;;;;;;16.07;8.70;;;;;;;-145.18;100.00;47086.25;5010094;28;20417;-74
2022/05/07 11:13:56;;;;;;;11.60;7.40;;;;;;;-145.18;100.00;47101.88;5009254;28;20273;-74
2022/05/07 11:16:23;;;;;;;13.07;8.07;;;;;;;-145.18;100.00;47047.19;5009789;28;20038;-74
2022/05/07 11:18:53;;;;;;;13.87;7.10;;;;;;;-145.18;100.00;47082.34;5009543;28;20407;-75